地図

経路データ

SID SEASON NUMBER BASIN SUBBASIN NAME ISO_TIME NATURE LAT LON WMO_WIND WMO_PRES WMO_AGENCY TRACK_TYPE DIST2LAND LANDFALL IFLAG USA_AGENCY USA_ATCF_ID USA_LAT USA_LON USA_RECORD USA_STATUS USA_WIND USA_PRES USA_SSHS USA_R34_NE USA_R34_SE USA_R34_SW USA_R34_NW USA_R50_NE USA_R50_SE USA_R50_SW USA_R50_NW USA_R64_NE USA_R64_SE USA_R64_SW USA_R64_NW USA_POCI USA_ROCI USA_RMW USA_EYE TOKYO_LAT TOKYO_LON TOKYO_GRADE TOKYO_WIND TOKYO_PRES TOKYO_R50_DIR TOKYO_R50_LONG TOKYO_R50_SHORT TOKYO_R30_DIR TOKYO_R30_LONG TOKYO_R30_SHORT TOKYO_LAND CMA_LAT CMA_LON CMA_CAT CMA_WIND CMA_PRES HKO_LAT HKO_LON HKO_CAT HKO_WIND HKO_PRES NEWDELHI_LAT NEWDELHI_LON NEWDELHI_GRADE NEWDELHI_WIND NEWDELHI_PRES NEWDELHI_CI NEWDELHI_DP NEWDELHI_POCI REUNION_LAT REUNION_LON REUNION_TYPE REUNION_WIND REUNION_PRES REUNION_TNUM REUNION_CI REUNION_RMW REUNION_R34_NE REUNION_R34_SE REUNION_R34_SW REUNION_R34_NW REUNION_R50_NE REUNION_R50_SE REUNION_R50_SW REUNION_R50_NW REUNION_R64_NE REUNION_R64_SE REUNION_R64_SW REUNION_R64_NW BOM_LAT BOM_LON BOM_TYPE BOM_WIND BOM_PRES BOM_TNUM BOM_CI BOM_RMW BOM_R34_NE BOM_R34_SE BOM_R34_SW BOM_R34_NW BOM_R50_NE BOM_R50_SE BOM_R50_SW BOM_R50_NW BOM_R64_NE BOM_R64_SE BOM_R64_SW BOM_R64_NW BOM_ROCI BOM_POCI BOM_EYE BOM_POS_METHOD BOM_PRES_METHOD NADI_LAT NADI_LON NADI_CAT NADI_WIND NADI_PRES WELLINGTON_LAT WELLINGTON_LON WELLINGTON_WIND WELLINGTON_PRES DS824_LAT DS824_LON DS824_STAGE DS824_WIND DS824_PRES TD9636_LAT TD9636_LON TD9636_STAGE TD9636_WIND TD9636_PRES TD9635_LAT TD9635_LON TD9635_WIND TD9635_PRES TD9635_ROCI NEUMANN_LAT NEUMANN_LON NEUMANN_CLASS NEUMANN_WIND NEUMANN_PRES MLC_LAT MLC_LON MLC_CLASS MLC_WIND MLC_PRES USA_GUST BOM_GUST BOM_GUST_PER REUNION_GUST REUNION_GUST_PER USA_SEAHGT USA_SEARAD_NE USA_SEARAD_SE USA_SEARAD_SW USA_SEARAD_NW STORM_SPEED STORM_DIR
1904233N21089 1904 29 NI BB NOT_NAMED 1904-08-20 00:00:00 TS 20.6000 88.6000 main 112 101 _________O____ -1 20.6000 88.6000 TC 30 1 331
1904233N21089 1904 29 NI BB NOT_NAMED 1904-08-20 03:00:00 TS 20.6600 88.5584 main 101 89 _________PO___ -1 20.6900 88.5375 TC 30 20.6000 88.6000 1 2 336
1904233N21089 1904 29 NI BB NOT_NAMED 1904-08-20 06:00:00 TS 20.7701 88.5183 main 89 78 _________OP___ -1 20.8000 88.5000 TC 30 20.7252 88.5458 1 3 346
1904233N21089 1904 29 NI BB NOT_NAMED 1904-08-20 09:00:00 TS 20.9030 88.5013 main 78 67 _________PP___ -1 20.9425 88.5000 TC 30 20.8503 88.5032 1 3 356
1904233N21089 1904 29 NI BB NOT_NAMED 1904-08-20 12:00:00 TS 21.0376 88.4920 main 67 44 _________OP___ -1 21.1000 88.5000 TC 30 20.9753 88.4840 1 3 0
1904233N21089 1904 29 NI BB NOT_NAMED 1904-08-20 15:00:00 TS 21.1750 88.4750 main 44 33 _________PO___ -1 21.2500 88.4500 TC 30 21.1000 88.5000 1 3 0
1904233N21089 1904 29 NI BB NOT_NAMED 1904-08-20 18:00:00 TS 21.3130 88.4757 main 33 22 _________OP___ -1 21.4000 88.4000 TC 30 21.2260 88.5513 1 3 8
1904233N21089 1904 29 NI BB NOT_NAMED 1904-08-20 21:00:00 TS 21.4407 88.5216 main 22 0 _________PP___ -1 21.5198 88.4521 TC 30 21.3615 88.5911 1 3 5
1904233N21089 1904 29 NI BB NOT_NAMED 1904-08-21 00:00:00 TS 21.6081 88.4802 main 0 0 _________OP___ -1 21.7000 88.4000 TC 30 21.5163 88.5604 1 5 330
1904233N21089 1904 29 NI BB NOT_NAMED 1904-08-21 03:00:00 TS 21.8750 88.2452 main 0 0 _________PO___ -1 22.0499 88.0904 TC 30 21.7000 88.4000 1 8 313
1904233N21089 1904 29 NI BB NOT_NAMED 1904-08-21 06:00:00 TS 22.1711 87.8229 main 0 0 _________OP___ -1 22.4000 87.6000 TC 30 21.9422 88.0458 1 10 300
1904233N21089 1904 29 NI BB NOT_NAMED 1904-08-21 09:00:00 TS 22.3942 87.2906 main 0 0 _________PP___ -1 22.5802 87.0222 TC 30 22.2083 87.5591 1 11 292
1904233N21089 1904 29 NI BB NOT_NAMED 1904-08-21 12:00:00 TS 22.5851 86.6963 main 0 0 _________OP___ -1 22.7000 86.4000 TC 30 22.4702 86.9926 1 11 290
1904233N21089 1904 29 NI BB NOT_NAMED 1904-08-21 15:00:00 TS 22.7786 86.1212 main 0 0 _________PO___ -1 22.8572 85.8425 TC 30 22.7000 86.4000 1 11 288
1904233N21089 1904 29 NI BB NOT_NAMED 1904-08-21 18:00:00 TS 22.9263 85.5776 main 0 0 _________OP___ -1 23.0000 85.3000 TC 30 22.8527 85.8552 1 10 284
1904233N21089 1904 29 NI BB NOT_NAMED 1904-08-21 21:00:00 TS 23.0361 85.0204 main 0 0 _________PP___ -1 23.0999 84.7423 TC 30 22.9723 85.2986 1 10 282
1904233N21089 1904 29 NI BB NOT_NAMED 1904-08-22 00:00:00 TS 23.1404 84.4714 main 0 0 _________OP___ -1 23.2000 84.2000 TC 30 23.0808 84.7427 1 10 283
1904233N21089 1904 29 NI BB NOT_NAMED 1904-08-22 03:00:00 TS 23.2674 83.9462 main 0 0 _________PO___ -1 23.3348 83.6924 TC 30 23.2000 84.2000 1 10 286
1904233N21089 1904 29 NI BB NOT_NAMED 1904-08-22 06:00:00 TS 23.4220 83.4345 main 0 0 _________OP___ -1 23.5000 83.2000 TC 30 23.3440 83.6690 1 10 289
1904233N21089 1904 29 NI BB NOT_NAMED 1904-08-22 09:00:00 TS 23.5948 82.9197 main 0 0 _________PP___ -1 23.6850 82.6849 TC 30 23.5046 83.1544 1 10 292
1904233N21089 1904 29 NI BB NOT_NAMED 1904-08-22 12:00:00 TS 23.7939 82.4313 main 0 0 _________OP___ -1 23.9000 82.2000 TC 30 23.6879 82.6626 1 9 296
1904233N21089 1904 29 NI BB NOT_NAMED 1904-08-22 15:00:00 TS 24.0174 81.9924 main 0 0 _________PO___ -1 24.1348 81.7848 TC 30 23.9000 82.2000 1 9 302
1904233N21089 1904 29 NI BB NOT_NAMED 1904-08-22 18:00:00 TS 24.2790 81.5796 main 0 0 _________OP___ -1 24.4000 81.4000 TC 30 24.1579 81.7593 1 9 307
1904233N21089 1904 29 NI BB NOT_NAMED 1904-08-22 21:00:00 TS 24.5747 81.1702 main 0 0 _________PP___ -1 24.7075 80.9926 TC 30 24.4419 81.3478 1 9 309
1904233N21089 1904 29 NI BB NOT_NAMED 1904-08-23 00:00:00 TS 24.8650 80.7812 main 0 0 _________OP___ -1 25.0000 80.6000 TC 30 24.7299 80.9624 1 9 308
1904233N21089 1904 29 NI BB NOT_NAMED 1904-08-23 03:00:00 TS 25.1075 80.4174 main 0 0 _________PO___ -1 25.2149 80.2347 TC 30 25.0000 80.6000 1 8 305
1904233N21089 1904 29 NI BB NOT_NAMED 1904-08-23 06:00:00 TS 25.3085 80.0763 main 0 0 _________OP___ -1 25.4000 79.9000 TC 30 25.2170 80.2526 1 7 304
1904233N21089 1904 29 NI BB NOT_NAMED 1904-08-23 09:00:00 TS 25.5071 79.7631 main 0 0 _________PP___ -1 25.5998 79.5998 TC 30 25.4144 79.9263 1 7 305
1904233N21089 1904 29 NI BB NOT_NAMED 1904-08-23 12:00:00 TS 25.7023 79.4560 main 0 0 _________OP___ -1 25.8000 79.3000 TC 30 25.6046 79.6120 1 7 304
1904233N21089 1904 29 NI BB NOT_NAMED 1904-08-23 15:00:00 TS 25.8963 79.1250 main 0 0 _________PO___ -1 25.9925 78.9499 TC 30 25.8000 79.3000 1 7 304
1904233N21089 1904 29 NI BB NOT_NAMED 1904-08-23 18:00:00 TS 26.0915 78.8186 main 0 0 _________OP___ -1 26.2000 78.6000 TC 30 26.0102 78.9825 1 7 307
1904233N21089 1904 29 NI BB NOT_NAMED 1904-08-23 21:00:00 TS 26.3160 78.5105 main 0 0 _________PP___ -1 26.4401 78.2878 TC 30 26.2333 78.6590 1 7 310
1904233N21089 1904 29 NI BB NOT_NAMED 1904-08-24 00:00:00 TS 26.5432 78.2206 main 0 0 _________OP___ -1 26.7000 78.0000 TC 30 26.4647 78.3309 1 6 310
1904233N21089 1904 29 NI AS NOT_NAMED 1904-08-24 03:00:00 NR 26.7000 78.0000 main 0 __________O___ -1 TC 26.7000 78.0000 1 5 308

IBTrACS Databaseについて

本データベースは、米国NOAAが公開する1842年以降の世界の熱帯低気圧のベストトラックデータアーカイブInternational Best Track Archive for Climate Stewardship (IBTrACS)を、ウェブで閲覧しやすい形式に変換したものです。

最終更新日:2021-12-03